Terminal Aerodrome Forecast
Issued by NWS

Home | Current Version | Previous Version | Text Only | Print | Product List | Glossary On
Versions: 1 2 3 4 5 6 7 8 9 10 11 12 13
000
FTUS46 KSEW 230535
TAFBLI
TAF
KBLI 230535Z 2306/2406 15003KT P6SM OVC060
     FM231200 15012G20KT P6SM SCT025 BKN070
     FM232100 14014G24KT P6SM SCT060 OVC120
     FM240300 06010KT P6SM -RA SCT030 OVC040=

USA.gov is the U.S. government's official web portal to all federal, state and local government web resources and services.